sensor_id;sensor_type;location;lat;lon;timestamp;pressure;altitude;pressure_sealevel;temperature;humidity
22241;BME280;11289;52.524;13.694;2023-01-24T00:01:08;103325.13;;;0.18;84.12
22241;BME280;11289;52.524;13.694;2023-01-24T00:03:33;103326.44;;;0.22;84.48
22241;BME280;11289;52.524;13.694;2023-01-24T00:05:59;103331.31;;;0.27;83.97
22241;BME280;11289;52.524;13.694;2023-01-24T00:08:24;103354.63;;;0.44;83.69
22241;BME280;11289;52.524;13.694;2023-01-24T00:11:05;103340.22;;;0.36;83.72
22241;BME280;11289;52.524;13.694;2023-01-24T00:13:31;103356.50;;;0.44;83.76
22241;BME280;11289;52.524;13.694;2023-01-24T00:16:13;103331.13;;;0.28;84.11
22241;BME280;11289;52.524;13.694;2023-01-24T00:18:39;103326.25;;;0.24;83.70
22241;BME280;11289;52.524;13.694;2023-01-24T00:21:10;103324.09;;;0.19;83.41
22241;BME280;11289;52.524;13.694;2023-01-24T00:23:38;103352.19;;;0.34;83.80
22241;BME280;11289;52.524;13.694;2023-01-24T00:26:04;103301.88;;;0.07;83.97
22241;BME280;11289;52.524;13.694;2023-01-24T00:28:30;103344.34;;;0.25;83.85
22241;BME280;11289;52.524;13.694;2023-01-24T00:31:05;103320.44;;;0.12;83.96
22241;BME280;11289;52.524;13.694;2023-01-24T00:33:33;103319.97;;;0.08;83.63
22241;BME280;11289;52.524;13.694;2023-01-24T00:35:59;103341.59;;;0.25;84.35
22241;BME280;11289;52.524;13.694;2023-01-24T00:38:24;103343.28;;;0.26;84.07
22241;BME280;11289;52.524;13.694;2023-01-24T00:40:50;103323.19;;;0.12;84.03
22241;BME280;11289;52.524;13.694;2023-01-24T00:43:16;103354.22;;;0.26;84.04
22241;BME280;11289;52.524;13.694;2023-01-24T00:45:44;103329.94;;;0.16;84.51
22241;BME280;11289;52.524;13.694;2023-01-24T00:48:10;103354.09;;;0.34;84.39
22241;BME280;11289;52.524;13.694;2023-01-24T00:50:36;103337.38;;;0.22;83.98
22241;BME280;11289;52.524;13.694;2023-01-24T00:53:02;103344.06;;;0.20;84.11
22241;BME280;11289;52.524;13.694;2023-01-24T00:55:28;103327.03;;;0.17;84.19
22241;BME280;11289;52.524;13.694;2023-01-24T00:57:53;103347.31;;;0.30;83.35
22241;BME280;11289;52.524;13.694;2023-01-24T01:00:20;103334.44;;;0.24;83.45
22241;BME280;11289;52.524;13.694;2023-01-24T01:02:48;103352.78;;;0.30;83.17
22241;BME280;11289;52.524;13.694;2023-01-24T01:05:13;103342.25;;;0.27;83.09
22241;BME280;11289;52.524;13.694;2023-01-24T01:07:39;103333.22;;;0.26;83.66
22241;BME280;11289;52.524;13.694;2023-01-24T01:10:05;103305.69;;;0.06;83.63
22241;BME280;11289;52.524;13.694;2023-01-24T01:12:30;103324.47;;;0.16;83.36
22241;BME280;11289;52.524;13.694;2023-01-24T01:14:55;103313.47;;;0.09;83.39
22241;BME280;11289;52.524;13.694;2023-01-24T01:17:21;103331.44;;;0.19;83.11
22241;BME280;11289;52.524;13.694;2023-01-24T01:19:50;103351.47;;;0.26;83.26
22241;BME280;11289;52.524;13.694;2023-01-24T01:22:16;103346.88;;;0.26;83.49
22241;BME280;11289;52.524;13.694;2023-01-24T01:24:41;103344.78;;;0.28;83.15
22241;BME280;11289;52.524;13.694;2023-01-24T01:27:07;103310.94;;;0.08;83.10
22241;BME280;11289;52.524;13.694;2023-01-24T01:29:33;103353.56;;;0.24;82.57
22241;BME280;11289;52.524;13.694;2023-01-24T01:31:58;103371.69;;;0.25;82.40
22241;BME280;11289;52.524;13.694;2023-01-24T01:34:24;103345.25;;;0.10;82.38
22241;BME280;11289;52.524;13.694;2023-01-24T01:36:49;103369.06;;;0.16;81.47
22241;BME280;11289;52.524;13.694;2023-01-24T01:39:14;103354.66;;;0.08;82.05
22241;BME280;11289;52.524;13.694;2023-01-24T01:41:40;103359.09;;;0.09;81.65
22241;BME280;11289;52.524;13.694;2023-01-24T01:44:41;103366.31;;;0.16;82.41
22241;BME280;11289;52.524;13.694;2023-01-24T01:47:14;103361.69;;;0.17;82.46
22241;BME280;11289;52.524;13.694;2023-01-24T01:49:49;103358.03;;;0.10;82.22
22241;BME280;11289;52.524;13.694;2023-01-24T01:52:17;103371.69;;;0.10;81.48
22241;BME280;11289;52.524;13.694;2023-01-24T01:54:43;103352.72;;;0.02;81.60
22241;BME280;11289;52.524;13.694;2023-01-24T01:57:17;103354.19;;;0.04;81.65
22241;BME280;11289;52.524;13.694;2023-01-24T01:59:51;103346.97;;;-0.04;81.46
22241;BME280;11289;52.524;13.694;2023-01-24T02:02:19;103364.38;;;-0.05;81.39
22241;BME280;11289;52.524;13.694;2023-01-24T02:04:52;103363.16;;;-0.02;81.17
22241;BME280;11289;52.524;13.694;2023-01-24T02:07:30;103372.03;;;0.00;81.23
22241;BME280;11289;52.524;13.694;2023-01-24T02:09:59;103373.44;;;-0.04;80.89
22241;BME280;11289;52.524;13.694;2023-01-24T02:12:37;103367.13;;;-0.05;81.29
22241;BME280;11289;52.524;13.694;2023-01-24T02:15:12;103376.44;;;0.01;81.37
22241;BME280;11289;52.524;13.694;2023-01-24T02:17:56;103367.84;;;0.04;81.57
22241;BME280;11289;52.524;13.694;2023-01-24T02:25:47;103371.66;;;0.03;81.09
22241;BME280;11289;52.524;13.694;2023-01-24T02:28:17;103362.59;;;0.03;81.13
22241;BME280;11289;52.524;13.694;2023-01-24T02:30:42;103369.31;;;0.00;80.68
22241;BME280;11289;52.524;13.694;2023-01-24T02:33:16;103366.69;;;-0.08;80.50
22241;BME280;11289;52.524;13.694;2023-01-24T02:35:42;103348.44;;;-0.23;80.94
22241;BME280;11289;52.524;13.694;2023-01-24T02:38:19;103355.00;;;-0.17;81.10
22241;BME280;11289;52.524;13.694;2023-01-24T02:40:47;103377.22;;;-0.05;81.62
22241;BME280;11289;52.524;13.694;2023-01-24T02:43:16;103363.06;;;-0.09;80.99
22241;BME280;11289;52.524;13.694;2023-01-24T02:45:43;103371.09;;;-0.07;80.70
22241;BME280;11289;52.524;13.694;2023-01-24T02:48:08;103378.91;;;-0.04;80.94
22241;BME280;11289;52.524;13.694;2023-01-24T02:50:34;103373.84;;;-0.07;81.23
22241;BME280;11289;52.524;13.694;2023-01-24T02:53:18;103376.81;;;-0.02;81.21
22241;BME280;11289;52.524;13.694;2023-01-24T02:55:58;103365.81;;;-0.09;81.00
22241;BME280;11289;52.524;13.694;2023-01-24T02:58:42;103365.81;;;-0.09;81.27
22241;BME280;11289;52.524;13.694;2023-01-24T03:01:07;103364.38;;;-0.05;81.21
22241;BME280;11289;52.524;13.694;2023-01-24T03:03:33;103363.16;;;-0.02;81.49
22241;BME280;11289;52.524;13.694;2023-01-24T03:05:58;103360.03;;;0.01;81.77
22241;BME280;11289;52.524;13.694;2023-01-24T03:08:25;103366.56;;;0.00;81.00
22241;BME280;11289;52.524;13.694;2023-01-24T03:10:51;103359.59;;;-0.03;81.16
22241;BME280;11289;52.524;13.694;2023-01-24T03:13:17;103324.69;;;-0.22;81.43
22241;BME280;11289;52.524;13.694;2023-01-24T03:16:02;103368.00;;;-0.04;81.13
22241;BME280;11289;52.524;13.694;2023-01-24T03:18:47;103370.53;;;-0.03;80.86
22241;BME280;11289;52.524;13.694;2023-01-24T03:21:30;103366.28;;;-0.05;81.98
22241;BME280;11289;52.524;13.694;2023-01-24T03:24:14;103364.88;;;-0.01;81.36
22241;BME280;11289;52.524;13.694;2023-01-24T03:26:58;103362.34;;;-0.03;81.23
22241;BME280;11289;52.524;13.694;2023-01-24T03:29:42;103366.72;;;-0.02;81.27
22241;BME280;11289;52.524;13.694;2023-01-24T03:32:26;103364.88;;;-0.01;81.68
22241;BME280;11289;52.524;13.694;2023-01-24T03:35:11;103365.91;;;-0.02;81.51
22241;BME280;11289;52.524;13.694;2023-01-24T03:37:36;103359.41;;;-0.01;81.26
22241;BME280;11289;52.524;13.694;2023-01-24T03:40:21;103357.91;;;-0.04;80.80
22241;BME280;11289;52.524;13.694;2023-01-24T03:42:46;103356.19;;;-0.05;81.15
22241;BME280;11289;52.524;13.694;2023-01-24T03:45:24;103349.91;;;-0.05;80.84
22241;BME280;11289;52.524;13.694;2023-01-24T03:47:51;103361.66;;;-0.05;81.37
22241;BME280;11289;52.524;13.694;2023-01-24T03:50:23;103358.53;;;-0.02;81.13
22241;BME280;11289;52.524;13.694;2023-01-24T03:53:08;103349.41;;;-0.09;81.01
22241;BME280;11289;52.524;13.694;2023-01-24T03:55:33;103349.59;;;-0.10;81.25
22241;BME280;11289;52.524;13.694;2023-01-24T03:57:59;103347.28;;;-0.13;80.91
22241;BME280;11289;52.524;13.694;2023-01-24T04:00:25;103340.03;;;-0.21;81.01
22241;BME280;11289;52.524;13.694;2023-01-24T04:02:50;103331.38;;;-0.25;81.50
22241;BME280;11289;52.524;13.694;2023-01-24T04:05:15;103337.75;;;-0.18;81.26
22241;BME280;11289;52.524;13.694;2023-01-24T04:07:41;103318.88;;;-0.34;81.34
22241;BME280;11289;52.524;13.694;2023-01-24T04:10:08;103345.94;;;-0.18;81.10
22241;BME280;11289;52.524;13.694;2023-01-24T04:12:33;103342.97;;;-0.23;80.68
22241;BME280;11289;52.524;13.694;2023-01-24T04:14:59;103342.13;;;-0.23;81.04
22241;BME280;11289;52.524;13.694;2023-01-24T04:17:24;103346.16;;;-0.19;81.08
22241;BME280;11289;52.524;13.694;2023-01-24T04:19:50;103356.88;;;-0.18;81.28
22241;BME280;11289;52.524;13.694;2023-01-24T04:22:16;103355.66;;;-0.15;80.80
22241;BME280;11289;52.524;13.694;2023-01-24T04:24:43;103346.53;;;-0.22;80.87
22241;BME280;11289;52.524;13.694;2023-01-24T04:27:08;103310.44;;;-0.39;80.87
22241;BME280;11289;52.524;13.694;2023-01-24T04:29:34;103317.09;;;-0.42;80.88
22241;BME280;11289;52.524;13.694;2023-01-24T04:31:59;103339.75;;;-0.26;80.93
22241;BME280;11289;52.524;13.694;2023-01-24T04:34:24;103329.41;;;-0.31;81.07
22241;BME280;11289;52.524;13.694;2023-01-24T04:36:50;103341.47;;;-0.25;80.78
22241;BME280;11289;52.524;13.694;2023-01-24T04:39:15;103347.13;;;-0.27;80.75
22241;BME280;11289;52.524;13.694;2023-01-24T04:41:41;103344.66;;;-0.22;80.95
22241;BME280;11289;52.524;13.694;2023-01-24T04:44:06;103331.94;;;-0.29;80.77
22241;BME280;11289;52.524;13.694;2023-01-24T04:46:31;103337.94;;;-0.19;81.23
22241;BME280;11289;52.524;13.694;2023-01-24T04:48:57;103314.63;;;-0.37;81.49
22241;BME280;11289;52.524;13.694;2023-01-24T04:51:22;103335.16;;;-0.26;80.78
22241;BME280;11289;52.524;13.694;2023-01-24T04:53:47;103333.06;;;-0.24;80.88
22241;BME280;11289;52.524;13.694;2023-01-24T04:56:13;103336.19;;;-0.27;80.74
22241;BME280;11289;52.524;13.694;2023-01-24T04:58:38;103301.56;;;-0.41;80.74
22241;BME280;11289;52.524;13.694;2023-01-24T05:01:05;103341.34;;;-0.17;81.17
22241;BME280;11289;52.524;13.694;2023-01-24T05:03:36;103323.50;;;-0.34;80.97
22241;BME280;11289;52.524;13.694;2023-01-24T05:06:04;103349.25;;;-0.22;80.51
22241;BME280;11289;52.524;13.694;2023-01-24T05:08:45;103342.97;;;-0.23;81.19
22241;BME280;11289;52.524;13.694;2023-01-24T05:11:41;103344.19;;;-0.25;81.01
22241;BME280;11289;52.524;13.694;2023-01-24T05:14:28;103307.31;;;-0.51;81.21
22241;BME280;11289;52.524;13.694;2023-01-24T05:17:00;103344.38;;;-0.27;81.73
22241;BME280;11289;52.524;13.694;2023-01-24T05:19:28;103347.84;;;-0.18;81.61
22241;BME280;11289;52.524;13.694;2023-01-24T05:21:54;103349.16;;;-0.14;81.22
22241;BME280;11289;52.524;13.694;2023-01-24T05:24:19;103318.22;;;-0.36;81.27
22241;BME280;11289;52.524;13.694;2023-01-24T05:26:44;103335.59;;;-0.22;81.30
22241;BME280;11289;52.524;13.694;2023-01-24T05:29:10;103337.88;;;-0.26;81.05
22241;BME280;11289;52.524;13.694;2023-01-24T05:31:35;103355.47;;;-0.13;80.97
22241;BME280;11289;52.524;13.694;2023-01-24T05:34:01;103344.91;;;-0.16;81.44
22241;BME280;11289;52.524;13.694;2023-01-24T05:36:27;103357.44;;;-0.07;80.97
22241;BME280;11289;52.524;13.694;2023-01-24T05:38:53;103361.22;;;-0.08;81.11
22241;BME280;11289;52.524;13.694;2023-01-24T05:41:19;103365.44;;;-0.06;80.50
22241;BME280;11289;52.524;13.694;2023-01-24T05:43:46;103362.25;;;-0.09;80.04
22241;BME280;11289;52.524;13.694;2023-01-24T05:46:18;103349.75;;;-0.19;80.40
22241;BME280;11289;52.524;13.694;2023-01-24T05:48:45;103362.63;;;-0.12;80.75
22241;BME280;11289;52.524;13.694;2023-01-24T05:51:13;103354.81;;;-0.15;81.25
22241;BME280;11289;52.524;13.694;2023-01-24T05:53:39;103330.72;;;-0.27;80.95
22241;BME280;11289;52.524;13.694;2023-01-24T05:56:08;103365.81;;;-0.09;80.70
22241;BME280;11289;52.524;13.694;2023-01-24T05:58:36;103366.00;;;-0.10;80.84
22241;BME280;11289;52.524;13.694;2023-01-24T06:01:09;103351.06;;;-0.14;80.69
22241;BME280;11289;52.524;13.694;2023-01-24T06:03:39;103365.81;;;-0.09;80.64
22241;BME280;11289;52.524;13.694;2023-01-24T06:06:07;103373.44;;;-0.04;80.58
22241;BME280;11289;52.524;13.694;2023-01-24T06:08:32;103365.66;;;-0.07;80.34
22241;BME280;11289;52.524;13.694;2023-01-24T06:11:06;103370.03;;;-0.06;79.70
22241;BME280;11289;52.524;13.694;2023-01-24T06:13:32;103366.00;;;-0.10;80.42
22241;BME280;11289;52.524;13.694;2023-01-24T06:16:05;103372.78;;;-0.06;80.32
22241;BME280;11289;52.524;13.694;2023-01-24T06:18:31;103367.44;;;-0.14;79.83
22241;BME280;11289;52.524;13.694;2023-01-24T06:20:57;103366.78;;;-0.16;80.21
22241;BME280;11289;52.524;13.694;2023-01-24T06:23:25;103359.34;;;-0.23;80.17
22241;BME280;11289;52.524;13.694;2023-01-24T06:25:51;103379.41;;;-0.15;79.78
22241;BME280;11289;52.524;13.694;2023-01-24T06:28:17;103376.66;;;-0.15;80.18
22241;BME280;11289;52.524;13.694;2023-01-24T06:30:48;103371.59;;;-0.19;79.90
22241;BME280;11289;52.524;13.694;2023-01-24T06:33:33;103382.53;;;-0.19;79.21
22241;BME280;11289;52.524;13.694;2023-01-24T06:37:06;103384.13;;;-0.24;79.41
22241;BME280;11289;52.524;13.694;2023-01-24T06:39:14;103394.56;;;-0.28;79.91
22241;BME280;11289;52.524;13.694;2023-01-24T06:41:40;103405.97;;;-0.24;79.96
22241;BME280;11289;52.524;13.694;2023-01-24T06:44:05;103397.88;;;-0.32;79.98
22241;BME280;11289;52.524;13.694;2023-01-24T06:46:32;103407.59;;;-0.30;80.49
22241;BME280;11289;52.524;13.694;2023-01-24T06:48:57;103407.78;;;-0.31;80.09
22241;BME280;11289;52.524;13.694;2023-01-24T06:51:23;103402.88;;;-0.36;80.51
22241;BME280;11289;52.524;13.694;2023-01-24T06:53:48;103408.41;;;-0.29;81.08
22241;BME280;11289;52.524;13.694;2023-01-24T06:56:14;103416.59;;;-0.29;80.76
22241;BME280;11289;52.524;13.694;2023-01-24T06:58:39;103416.22;;;-0.26;80.79
22241;BME280;11289;52.524;13.694;2023-01-24T07:01:04;103420.22;;;-0.29;79.63
22241;BME280;11289;52.524;13.694;2023-01-24T07:03:30;103428.41;;;-0.29;79.81
22241;BME280;11289;52.524;13.694;2023-01-24T07:05:55;103436.97;;;-0.32;79.69
22241;BME280;11289;52.524;13.694;2023-01-24T07:08:21;103431.66;;;-0.33;80.20
22241;BME280;11289;52.524;13.694;2023-01-24T07:10:46;103430.00;;;-0.34;80.62
22241;BME280;11289;52.524;13.694;2023-01-24T07:13:12;103437.88;;;-0.25;80.52
22241;BME280;11289;52.524;13.694;2023-01-24T07:15:37;103440.63;;;-0.25;80.33
22241;BME280;11289;52.524;13.694;2023-01-24T07:18:10;103433.94;;;-0.22;79.94
22241;BME280;11289;52.524;13.694;2023-01-24T07:20:36;103441.69;;;-0.26;79.14
22241;BME280;11289;52.524;13.694;2023-01-24T07:23:02;103446.47;;;-0.28;78.96
22241;BME280;11289;52.524;13.694;2023-01-24T07:25:28;103450.63;;;-0.32;79.37
22241;BME280;11289;52.524;13.694;2023-01-24T07:27:54;103453.53;;;-0.33;79.37
22241;BME280;11289;52.524;13.694;2023-01-24T07:30:19;103461.81;;;-0.27;79.29
22241;BME280;11289;52.524;13.694;2023-01-24T07:32:45;103456.44;;;-0.35;78.80
22241;BME280;11289;52.524;13.694;2023-01-24T07:35:10;103460.03;;;-0.34;79.33
22241;BME280;11289;52.524;13.694;2023-01-24T07:37:36;103449.94;;;-0.34;79.18
22241;BME280;11289;52.524;13.694;2023-01-24T07:40:02;103457.38;;;-0.28;79.05
22241;BME280;11289;52.524;13.694;2023-01-24T07:42:27;103438.09;;;-0.41;79.16
22241;BME280;11289;52.524;13.694;2023-01-24T07:44:53;103454.38;;;-0.33;79.31
22241;BME280;11289;52.524;13.694;2023-01-24T07:47:19;103438.66;;;-0.31;79.80
22241;BME280;11289;52.524;13.694;2023-01-24T07:49:45;103439.03;;;-0.34;79.05
22241;BME280;11289;52.524;13.694;2023-01-24T07:52:10;103434.88;;;-0.30;79.58
22241;BME280;11289;52.524;13.694;2023-01-24T07:54:35;103450.91;;;-0.27;79.34
22241;BME280;11289;52.524;13.694;2023-01-24T07:57:01;103455.91;;;-0.30;79.41
22241;BME280;11289;52.524;13.694;2023-01-24T07:59:26;103450.06;;;-0.27;79.15
22241;BME280;11289;52.524;13.694;2023-01-24T08:01:52;103452.88;;;-0.21;79.31
22241;BME280;11289;52.524;13.694;2023-01-24T08:04:17;103442.69;;;-0.27;79.20
22241;BME280;11289;52.524;13.694;2023-01-24T08:06:42;103447.59;;;-0.22;79.37
22241;BME280;11289;52.524;13.694;2023-01-24T08:09:28;103446.25;;;-0.26;79.15
22241;BME280;11289;52.524;13.694;2023-01-24T08:11:54;103462.47;;;-0.25;79.02
22241;BME280;11289;52.524;13.694;2023-01-24T08:14:19;103455.41;;;-0.34;78.61
22241;BME280;11289;52.524;13.694;2023-01-24T08:16:45;103467.94;;;-0.25;79.16
22241;BME280;11289;52.524;13.694;2023-01-24T08:19:10;103453.63;;;-0.27;79.61
22241;BME280;11289;52.524;13.694;2023-01-24T08:21:36;103470.13;;;-0.20;79.53
22241;BME280;11289;52.524;13.694;2023-01-24T08:24:01;103466.13;;;-0.18;79.31
22241;BME280;11289;52.524;13.694;2023-01-24T08:26:27;103461.81;;;-0.12;79.55
22241;BME280;11289;52.524;13.694;2023-01-24T08:28:52;103452.03;;;-0.21;79.22
22241;BME280;11289;52.524;13.694;2023-01-24T08:31:18;103463.69;;;-0.12;78.98
22241;BME280;11289;52.524;13.694;2023-01-24T08:33:43;103461.06;;;-0.21;78.93
22241;BME280;11289;52.524;13.694;2023-01-24T08:36:09;103457.09;;;-0.18;78.98
22241;BME280;11289;52.524;13.694;2023-01-24T08:38:34;103462.38;;;-0.16;79.17
22241;BME280;11289;52.524;13.694;2023-01-24T08:41:04;103471.13;;;-0.06;78.75
22241;BME280;11289;52.524;13.694;2023-01-24T08:43:31;103434.50;;;-0.27;78.68
22241;BME280;11289;52.524;13.694;2023-01-24T08:45:56;103462.56;;;-0.03;78.67
22241;BME280;11289;52.524;13.694;2023-01-24T08:48:22;103435.25;;;-0.18;78.78
22241;BME280;11289;52.524;13.694;2023-01-24T08:50:47;103454.53;;;-0.05;78.95
22241;BME280;11289;52.524;13.694;2023-01-24T08:53:12;103452.00;;;-0.06;78.22
22241;BME280;11289;52.524;13.694;2023-01-24T08:55:39;103436.66;;;-0.22;78.44
22241;BME280;11289;52.524;13.694;2023-01-24T08:58:05;103463.88;;;0.01;78.67
22241;BME280;11289;52.524;13.694;2023-01-24T09:00:31;103455.59;;;-0.06;78.04
22241;BME280;11289;52.524;13.694;2023-01-24T09:02:57;103463.88;;;0.01;78.56
22241;BME280;11289;52.524;13.694;2023-01-24T09:05:29;103420.66;;;-0.25;77.82
22241;BME280;11289;52.524;13.694;2023-01-24T09:07:55;103462.09;;;-0.07;77.40
22241;BME280;11289;52.524;13.694;2023-01-24T09:10:21;103458.53;;;-0.07;78.67
22241;BME280;11289;52.524;13.694;2023-01-24T09:12:46;103453.31;;;-0.02;78.58
22241;BME280;11289;52.524;13.694;2023-01-24T09:15:11;103458.69;;;0.06;78.42
22241;BME280;11289;52.524;13.694;2023-01-24T09:17:37;103463.59;;;0.11;78.64
22241;BME280;11289;52.524;13.694;2023-01-24T09:20:06;103453.50;;;0.11;78.69
22241;BME280;11289;52.524;13.694;2023-01-24T09:22:32;103442.69;;;0.03;77.85
22241;BME280;11289;52.524;13.694;2023-01-24T09:24:58;103451.72;;;0.04;77.75
22241;BME280;11289;52.524;13.694;2023-01-24T09:27:23;103450.00;;;0.03;77.70
22241;BME280;11289;52.524;13.694;2023-01-24T09:29:49;103471.69;;;0.19;78.16
22241;BME280;11289;52.524;13.694;2023-01-24T09:32:14;103462.44;;;0.20;78.34
22241;BME280;11289;52.524;13.694;2023-01-24T09:34:42;103447.09;;;0.04;77.92
22241;BME280;11289;52.524;13.694;2023-01-24T09:37:12;103479.84;;;0.34;78.37
22241;BME280;11289;52.524;13.694;2023-01-24T09:39:41;103459.13;;;0.25;77.99
22241;BME280;11289;52.524;13.694;2023-01-24T09:42:35;103482.84;;;0.39;77.01
22241;BME280;11289;52.524;13.694;2023-01-24T09:45:20;103484.28;;;0.35;76.77
22241;BME280;11289;52.524;13.694;2023-01-24T09:47:54;103477.31;;;0.32;77.70
22241;BME280;11289;52.524;13.694;2023-01-24T09:53:01;103461.75;;;0.33;77.57
22241;BME280;11289;52.524;13.694;2023-01-24T09:55:36;103459.28;;;0.38;77.52
22241;BME280;11289;52.524;13.694;2023-01-24T09:58:13;103461.63;;;0.41;76.89
22241;BME280;11289;52.524;13.694;2023-01-24T10:00:45;103462.28;;;0.43;77.98
22241;BME280;11289;52.524;13.694;2023-01-24T10:03:19;103468.94;;;0.56;77.25
22241;BME280;11289;52.524;13.694;2023-01-24T10:05:56;103452.75;;;0.54;77.17
22241;BME280;11289;52.524;13.694;2023-01-24T10:11:23;103453.13;;;0.73;77.38
22241;BME280;11289;52.524;13.694;2023-01-24T10:19:30;103451.63;;;0.70;75.96
22241;BME280;11289;52.524;13.694;2023-01-24T10:25:09;103449.53;;;0.72;77.18
22241;BME280;11289;52.524;13.694;2023-01-24T10:27:41;103442.84;;;0.75;76.65
22241;BME280;11289;52.524;13.694;2023-01-24T10:30:43;103442.91;;;0.81;77.04
22241;BME280;11289;52.524;13.694;2023-01-24T10:33:19;103415.69;;;0.73;77.14
22241;BME280;11289;52.524;13.694;2023-01-24T10:35:54;103431.97;;;0.81;76.66
22241;BME280;11289;52.524;13.694;2023-01-24T10:38:20;103444.84;;;0.88;76.82
22241;BME280;11289;52.524;13.694;2023-01-24T10:40:54;103444.16;;;0.79;76.52
22241;BME280;11289;52.524;13.694;2023-01-24T10:43:22;103446.59;;;0.74;76.74
22241;BME280;11289;52.524;13.694;2023-01-24T10:46:04;103431.06;;;0.74;77.17
22241;BME280;11289;52.524;13.694;2023-01-24T10:48:50;103445.44;;;0.83;77.74
22241;BME280;11289;52.524;13.694;2023-01-24T10:51:21;103453.69;;;0.90;77.12
22241;BME280;11289;52.524;13.694;2023-01-24T10:53:47;103444.91;;;0.73;77.08
22241;BME280;11289;52.524;13.694;2023-01-24T10:56:18;103452.16;;;0.80;77.52
22241;BME280;11289;52.524;13.694;2023-01-24T11:01:39;103434.81;;;0.73;77.26
22241;BME280;11289;52.524;13.694;2023-01-24T11:06:39;103432.22;;;0.86;77.93
22241;BME280;11289;52.524;13.694;2023-01-24T11:09:12;103433.50;;;0.91;77.77
22241;BME280;11289;52.524;13.694;2023-01-24T11:11:44;103446.00;;;1.00;77.88
22241;BME280;11289;52.524;13.694;2023-01-24T11:14:19;103447.31;;;1.04;77.27
22241;BME280;11289;52.524;13.694;2023-01-24T11:16:47;103436.75;;;1.01;77.69
22241;BME280;11289;52.524;13.694;2023-01-24T11:19:26;103430.81;;;0.97;77.82
22241;BME280;11289;52.524;13.694;2023-01-24T11:21:58;103430.66;;;0.99;77.16
22241;BME280;11289;52.524;13.694;2023-01-24T11:24:24;103442.13;;;1.16;77.72
22241;BME280;11289;52.524;13.694;2023-01-24T11:29:21;103432.28;;;1.21;77.15
22241;BME280;11289;52.524;13.694;2023-01-24T11:31:49;103388.72;;;0.98;77.59
22241;BME280;11289;52.524;13.694;2023-01-24T11:40:20;103406.00;;;1.27;77.70
22241;BME280;11289;52.524;13.694;2023-01-24T11:48:22;103419.97;;;1.39;76.70
22241;BME280;11289;52.524;13.694;2023-01-24T11:51:01;103421.22;;;1.36;76.58
22241;BME280;11289;52.524;13.694;2023-01-24T12:01:52;103414.47;;;1.32;76.99
22241;BME280;11289;52.524;13.694;2023-01-24T12:07:22;103403.28;;;1.27;76.91
22241;BME280;11289;52.524;13.694;2023-01-24T12:10:22;103399.91;;;1.25;77.29
22241;BME280;11289;52.524;13.694;2023-01-24T12:12:59;103394.44;;;1.32;77.46
22241;BME280;11289;52.524;13.694;2023-01-24T12:15:55;103409.03;;;1.39;76.97
22241;BME280;11289;52.524;13.694;2023-01-24T12:18:31;103405.69;;;1.44;77.41
22241;BME280;11289;52.524;13.694;2023-01-24T12:20:59;103392.81;;;1.37;76.21
22241;BME280;11289;52.524;13.694;2023-01-24T12:23:35;103392.59;;;1.39;76.44
22241;BME280;11289;52.524;13.694;2023-01-24T12:26:12;103387.53;;;1.36;76.83
22241;BME280;11289;52.524;13.694;2023-01-24T12:28:59;103396.00;;;1.41;76.34
22241;BME280;11289;52.524;13.694;2023-01-24T12:31:43;103379.56;;;1.41;76.57
22241;BME280;11289;52.524;13.694;2023-01-24T12:34:54;103387.78;;;1.41;75.92
22241;BME280;11289;52.524;13.694;2023-01-24T12:40:15;103383.97;;;1.42;76.29
22241;BME280;11289;52.524;13.694;2023-01-24T12:43:01;103383.75;;;1.37;76.57
22241;BME280;11289;52.524;13.694;2023-01-24T12:48:39;103408.41;;;1.37;76.68
22241;BME280;11289;52.524;13.694;2023-01-24T12:54:15;103399.56;;;1.42;76.18
22241;BME280;11289;52.524;13.694;2023-01-24T12:56:59;103398.75;;;1.41;76.27
22241;BME280;11289;52.524;13.694;2023-01-24T12:59:29;103387.88;;;1.26;76.42
22241;BME280;11289;52.524;13.694;2023-01-24T13:12:45;103376.41;;;1.44;76.62
22241;BME280;11289;52.524;13.694;2023-01-24T13:15:22;103374.31;;;1.39;76.23
22241;BME280;11289;52.524;13.694;2023-01-24T13:21:03;103379.78;;;1.46;76.83
22241;BME280;11289;52.524;13.694;2023-01-24T13:29:36;103369.03;;;1.45;76.76
22241;BME280;11289;52.524;13.694;2023-01-24T13:32:15;103376.03;;;1.54;76.77
22241;BME280;11289;52.524;13.694;2023-01-24T13:34:44;103371.38;;;1.48;76.60
22241;BME280;11289;52.524;13.694;2023-01-24T13:37:35;103367.66;;;1.55;76.22
22241;BME280;11289;52.524;13.694;2023-01-24T13:48:01;103366.28;;;1.38;76.68
22241;BME280;11289;52.524;13.694;2023-01-24T13:50:29;103373.84;;;1.36;76.34
22241;BME280;11289;52.524;13.694;2023-01-24T13:52:59;103381.25;;;1.42;76.59
22241;BME280;11289;52.524;13.694;2023-01-24T14:00:46;103362.47;;;1.32;76.78
22241;BME280;11289;52.524;13.694;2023-01-24T14:10:47;103364.22;;;1.47;76.79
22241;BME280;11289;52.524;13.694;2023-01-24T14:21:50;103371.44;;;1.61;76.92
22241;BME280;11289;52.524;13.694;2023-01-24T14:26:51;103368.31;;;1.64;76.90
22241;BME280;11289;52.524;13.694;2023-01-24T14:29:17;103354.31;;;1.52;76.32
22241;BME280;11289;52.524;13.694;2023-01-24T14:31:46;103351.31;;;1.41;76.80
22241;BME280;11289;52.524;13.694;2023-01-24T14:34:33;103364.84;;;1.49;76.72
22241;BME280;11289;52.524;13.694;2023-01-24T14:37:08;103372.25;;;1.48;77.19
22241;BME280;11289;52.524;13.694;2023-01-24T14:39:34;103360.50;;;1.26;76.72
22241;BME280;11289;52.524;13.694;2023-01-24T14:42:04;103358.78;;;1.18;77.43
22241;BME280;11289;52.524;13.694;2023-01-24T14:44:33;103375.06;;;1.27;77.69
22241;BME280;11289;52.524;13.694;2023-01-24T14:47:16;103368.78;;;1.33;78.12
22241;BME280;11289;52.524;13.694;2023-01-24T14:49:45;103367.94;;;1.32;77.62
22241;BME280;11289;52.524;13.694;2023-01-24T14:52:46;103373.63;;;1.37;77.51